Time;durP1;ratioP1;P1;durP2;ratioP2;P2;SDS_P1;SDS_P2;PMS_P1;PMS_P2;Temp;Humidity;BMP_temperature;BMP_pressure;BME280_temperature;BME280_humidity;BME280_pressure;Samples;Min_cycle;Max_cycle;Signal;HPM_P1;HPM_P2
2022/01/17 07:01:14;;;;;;;440.77;31.52;;;;;;;;;;5425381;23;20506;-80
2022/01/17 07:03:42;;;;;;;475.83;32.15;;;;;;;;;;4863335;29;20049;-81
2022/01/17 07:06:09;;;;;;;288.23;25.95;;;;;;;;;;4860267;29;20098;-80
2022/01/17 07:08:36;;;;;;;369.85;27.42;;;;;;;;;;4863450;29;20514;-80
2022/01/17 07:11:03;;;;;;;396.35;30.15;;;;;;;;;;4870509;29;20486;-80
2022/01/17 07:13:31;;;;;;;394.20;28.88;;;;;;;;;;4844819;29;20049;-81
2022/01/17 07:15:57;;;;;;;336.88;26.35;;;;;;;;;;4844594;29;20561;-81
2022/01/17 07:18:25;;;;;;;373.67;27.95;;;;;;;;;;4842336;29;20053;-81
2022/01/17 07:20:51;;;;;;;495.42;29.88;;;;;;;;;;4841954;29;20510;-81
2022/01/17 07:23:18;;;;;;;374.98;27.27;;;;;;;;;;4842464;29;20049;-81
2022/01/17 07:25:44;;;;;;;437.08;30.13;;;;;;;;;;4840009;29;20089;-80
2022/01/17 07:28:13;;;;;;;335.45;25.92;;;;;;;;;;4841531;29;20054;-80
2022/01/17 07:30:40;;;;;;;379.98;28.33;;;;;;;;;;4843287;29;20046;-81
2022/01/17 07:33:08;;;;;;;411.95;29.63;;;;;;;;;;4840788;29;20111;-81
2022/01/17 07:35:35;;;;;;;324.30;25.27;;;;;;;;;;4840266;29;20058;-81
2022/01/17 07:38:03;;;;;;;433.57;29.20;;;;;;;;;;4840005;29;20046;-80
2022/01/17 07:40:30;;;;;;;275.73;24.95;;;;;;;;;;4856715;29;20630;-81
2022/01/17 07:42:56;;;;;;;367.90;29.10;;;;;;;;;;4862197;29;20114;-81
2022/01/17 07:45:25;;;;;;;253.95;24.27;;;;;;;;;;4860285;29;20084;-81
2022/01/17 07:50:22;;;;;;;195.88;20.15;;;;;;;;;;4858662;29;20057;-80
2022/01/17 07:52:50;;;;;;;371.63;26.77;;;;;;;;;;4859751;29;20121;-81
2022/01/17 07:55:19;;;;;;;431.02;30.05;;;;;;;;;;4856720;29;20081;-81
2022/01/17 07:57:46;;;;;;;365.85;25.38;;;;;;;;;;4861794;29;20053;-80
2022/01/17 08:00:20;;;;;;;291.80;24.08;;;;;;;;;;4867802;29;20053;-82
2022/01/17 08:02:48;;;;;;;469.90;29.48;;;;;;;;;;4883347;29;20051;-80
2022/01/17 08:05:15;;;;;;;450.58;29.98;;;;;;;;;;4875396;29;20117;-81
2022/01/17 08:07:43;;;;;;;543.67;33.33;;;;;;;;;;4875752;29;20052;-81
2022/01/17 08:10:12;;;;;;;556.77;31.13;;;;;;;;;;4873521;29;20045;-81
2022/01/17 08:12:45;;;;;;;489.23;31.40;;;;;;;;;;4876149;29;20049;-81
2022/01/17 08:15:12;;;;;;;390.00;25.17;;;;;;;;;;4858946;29;20140;-81
2022/01/17 08:17:39;;;;;;;792.20;38.25;;;;;;;;;;4876941;29;20052;-79
2022/01/17 08:20:07;;;;;;;596.90;30.90;;;;;;;;;;4876749;29;20052;-79
2022/01/17 08:22:34;;;;;;;651.90;33.83;;;;;;;;;;4859959;29;20045;-81
2022/01/17 08:25:01;;;;;;;604.92;32.35;;;;;;;;;;4877624;29;20085;-81
2022/01/17 08:27:28;;;;;;;567.53;30.55;;;;;;;;;;4876957;29;20514;-80
2022/01/17 08:29:56;;;;;;;787.70;36.97;;;;;;;;;;4881286;29;20112;-81
2022/01/17 08:32:42;;;;;;;564.88;31.15;;;;;;;;;;4863191;29;20546;-81
2022/01/17 08:35:09;;;;;;;487.80;26.63;;;;;;;;;;4857079;29;20057;-81
2022/01/17 08:37:36;;;;;;;362.38;23.17;;;;;;;;;;4855413;29;20046;-81
2022/01/17 08:40:05;;;;;;;493.45;28.23;;;;;;;;;;4858804;29;20514;-81
2022/01/17 08:42:38;;;;;;;558.28;30.73;;;;;;;;;;4860356;29;20053;-81
2022/01/17 08:45:09;;;;;;;434.83;26.23;;;;;;;;;;4858042;29;20042;-81
2022/01/17 08:47:56;;;;;;;368.13;24.08;;;;;;;;;;4858012;29;20050;-81
2022/01/17 08:50:23;;;;;;;444.05;24.95;;;;;;;;;;4857835;29;20046;-82
2022/01/17 08:52:50;;;;;;;364.83;22.05;;;;;;;;;;4856716;29;20101;-82
2022/01/17 08:55:17;;;;;;;531.72;25.45;;;;;;;;;;4856126;29;25253;-82
2022/01/17 08:57:44;;;;;;;491.13;25.00;;;;;;;;;;4859909;29;20049;-82
2022/01/17 09:00:17;;;;;;;638.65;26.13;;;;;;;;;;4857837;29;20136;-81
2022/01/17 09:02:49;;;;;;;583.25;27.35;;;;;;;;;;4875603;29;20072;-81
2022/01/17 09:05:16;;;;;;;607.83;27.17;;;;;;;;;;4877462;29;20045;-82
2022/01/17 09:07:42;;;;;;;632.63;30.65;;;;;;;;;;4875815;29;20147;-81
2022/01/17 09:10:09;;;;;;;709.67;30.75;;;;;;;;;;4888978;29;20057;-81
2022/01/17 09:12:40;;;;;;;570.03;25.63;;;;;;;;;;4878175;29;20502;-81
2022/01/17 09:15:07;;;;;;;684.72;28.83;;;;;;;;;;4877937;29;20083;-81
2022/01/17 09:17:34;;;;;;;593.60;25.38;;;;;;;;;;4876418;29;20056;-82
2022/01/17 09:20:01;;;;;;;633.45;25.95;;;;;;;;;;4875864;29;20047;-81
2022/01/17 09:22:29;;;;;;;464.15;19.20;;;;;;;;;;4871374;29;20049;-81
2022/01/17 09:24:56;;;;;;;438.50;19.63;;;;;;;;;;4886668;29;20465;-81
2022/01/17 09:27:22;;;;;;;465.05;21.67;;;;;;;;;;4876159;29;20577;-81
2022/01/17 09:29:50;;;;;;;339.17;16.85;;;;;;;;;;4876246;29;20049;-81
2022/01/17 09:32:17;;;;;;;281.80;14.52;;;;;;;;;;4875629;29;20589;-81
2022/01/17 09:34:46;;;;;;;246.43;15.50;;;;;;;;;;4874132;29;20053;-82
2022/01/17 09:37:13;;;;;;;290.77;16.25;;;;;;;;;;4874490;29;20411;-81
2022/01/17 09:39:40;;;;;;;269.95;16.80;;;;;;;;;;4879628;29;20053;-81
2022/01/17 09:42:08;;;;;;;319.75;17.38;;;;;;;;;;4875380;29;20049;-81
2022/01/17 09:44:36;;;;;;;390.85;19.15;;;;;;;;;;4876306;29;20049;-81
2022/01/17 09:47:07;;;;;;;379.60;19.98;;;;;;;;;;4876081;29;20063;-81
2022/01/17 09:49:48;;;;;;;390.25;19.33;;;;;;;;;;4853981;29;20130;-82
2022/01/17 09:55:21;;;;;;;516.22;22.25;;;;;;;;;;4886852;29;20439;-82
2022/01/17 09:58:08;;;;;;;622.67;26.40;;;;;;;;;;4878188;29;20076;-81
2022/01/17 10:00:39;;;;;;;580.08;23.00;;;;;;;;;;4866506;29;20106;-81
2022/01/17 10:03:12;;;;;;;553.45;22.58;;;;;;;;;;4840223;29;20165;-80
2022/01/17 10:05:40;;;;;;;612.05;24.23;;;;;;;;;;4857130;29;20053;-82
2022/01/17 10:08:10;;;;;;;534.00;22.60;;;;;;;;;;4856018;29;20060;-81
2022/01/17 10:10:57;;;;;;;535.08;21.23;;;;;;;;;;4850872;29;20050;-82
2022/01/17 10:13:24;;;;;;;643.47;25.80;;;;;;;;;;4869775;29;20496;-82
2022/01/17 10:16:04;;;;;;;681.35;26.38;;;;;;;;;;4860752;29;20053;-82
2022/01/17 10:18:55;;;;;;;501.30;22.75;;;;;;;;;;4878268;29;20052;-81
2022/01/17 10:21:34;;;;;;;609.78;24.85;;;;;;;;;;4876275;29;20078;-81
2022/01/17 10:24:19;;;;;;;816.22;32.15;;;;;;;;;;4860078;29;20076;-82
2022/01/17 10:37:25;;;;;;;611.58;25.45;;;;;;;;;;4873438;29;20589;-82
2022/01/17 10:39:53;;;;;;;529.67;25.58;;;;;;;;;;4862160;29;20057;-81
2022/01/17 10:42:37;;;;;;;573.10;25.98;;;;;;;;;;4875477;29;20101;-81
2022/01/17 10:45:16;;;;;;;452.80;22.33;;;;;;;;;;4875611;29;20073;-82
2022/01/17 10:47:47;;;;;;;505.70;23.83;;;;;;;;;;4862157;29;20112;-81
2022/01/17 10:50:19;;;;;;;490.25;24.38;;;;;;;;;;4877619;29;20080;-81
2022/01/17 10:52:49;;;;;;;352.38;20.17;;;;;;;;;;4877214;29;20110;-81
2022/01/17 10:55:24;;;;;;;316.77;18.38;;;;;;;;;;4877316;29;20045;-81
2022/01/17 10:57:54;;;;;;;476.20;21.23;;;;;;;;;;4881441;29;20136;-81
2022/01/17 11:00:23;;;;;;;356.90;18.30;;;;;;;;;;4878126;29;20083;-81
2022/01/17 11:02:53;;;;;;;312.70;17.02;;;;;;;;;;4878495;29;20412;-82
2022/01/17 11:05:22;;;;;;;365.05;17.00;;;;;;;;;;4878135;29;20052;-81
2022/01/17 11:07:53;;;;;;;;;;;;;;;;;;4857219;29;20046;-81
2022/01/17 11:10:35;;;;;;;271.85;17.35;;;;;;;;;;4882224;29;19967;-81
2022/01/17 11:13:05;;;;;;;158.05;14.15;;;;;;;;;;4889331;29;20589;-81
2022/01/17 11:15:34;;;;;;;211.32;15.30;;;;;;;;;;4845536;29;20046;-81
2022/01/17 11:18:16;;;;;;;137.23;13.05;;;;;;;;;;4860097;29;20049;-82
2022/01/17 11:20:43;;;;;;;171.90;14.57;;;;;;;;;;4878793;29;20049;-82
2022/01/17 11:23:10;;;;;;;166.75;14.23;;;;;;;;;;4855194;29;20088;-82
2022/01/17 11:25:44;;;;;;;174.20;14.50;;;;;;;;;;4856897;29;20049;-81
2022/01/17 11:28:15;;;;;;;135.25;15.35;;;;;;;;;;4859329;29;20106;-81
2022/01/17 11:30:44;;;;;;;116.40;14.55;;;;;;;;;;4861884;29;20675;-82
2022/01/17 11:33:11;;;;;;;133.80;16.77;;;;;;;;;;4860026;29;20050;-81
2022/01/17 11:35:45;;;;;;;96.15;14.95;;;;;;;;;;4861297;29;20049;-82
2022/01/17 11:38:15;;;;;;;179.63;16.35;;;;;;;;;;4858805;29;20045;-82
2022/01/17 11:40:43;;;;;;;121.72;15.93;;;;;;;;;;4857293;29;20054;-82
2022/01/17 11:43:37;;;;;;;160.27;16.13;;;;;;;;;;4860657;29;20060;-82
2022/01/17 11:46:19;;;;;;;97.20;15.55;;;;;;;;;;4871105;29;20060;-81
2022/01/17 11:48:56;;;;;;;129.52;16.65;;;;;;;;;;4868122;29;20064;-82
2022/01/17 11:51:23;;;;;;;109.68;16.83;;;;;;;;;;4859240;29;20057;-82
2022/01/17 11:53:54;;;;;;;60.90;16.13;;;;;;;;;;4857181;29;20061;-81
2022/01/17 11:56:42;;;;;;;72.43;17.10;;;;;;;;;;4866792;29;20104;-83
2022/01/17 11:59:34;;;;;;;59.00;17.05;;;;;;;;;;4869337;29;20053;-82
2022/01/17 12:02:17;;;;;;;75.90;17.85;;;;;;;;;;4873306;29;20052;-82
2022/01/17 12:05:22;;;;;;;57.97;18.88;;;;;;;;;;4845806;29;20100;-84
2022/01/17 12:08:23;;;;;;;36.40;18.85;;;;;;;;;;4803199;29;20042;-83
2022/01/17 12:11:39;;;;;;;49.15;20.20;;;;;;;;;;4810933;29;20106;-84
2022/01/17 12:14:57;;;;;;;31.95;17.63;;;;;;;;;;4846767;29;20493;-84
2022/01/17 12:17:28;;;;;;;37.70;19.15;;;;;;;;;;4845589;29;20400;-84
2022/01/17 12:20:18;;;;;;;38.75;18.65;;;;;;;;;;4807326;29;20058;-85
2022/01/17 12:22:57;;;;;;;30.75;17.40;;;;;;;;;;4850793;29;20480;-83
2022/01/17 12:25:29;;;;;;;36.88;19.15;;;;;;;;;;4855609;29;20049;-80
2022/01/17 12:28:04;;;;;;;40.97;22.17;;;;;;;;;;4854004;29;20086;-80
2022/01/17 12:30:49;;;;;;;38.70;19.75;;;;;;;;;;4854554;29;20777;-81
2022/01/17 12:33:28;;;;;;;33.50;18.42;;;;;;;;;;4853891;29;20057;-80
2022/01/17 12:35:59;;;;;;;;;;;;;;;;;;4854498;29;20097;-79
2022/01/17 12:38:41;;;;;;;30.80;18.02;;;;;;;;;;4853910;29;19924;-80
2022/01/17 12:41:31;;;;;;;32.20;18.85;;;;;;;;;;4854558;29;20045;-79
2022/01/17 12:43:57;;;;;;;37.58;18.40;;;;;;;;;;4868965;29;20108;-80
2022/01/17 12:46:25;;;;;;;31.40;18.67;;;;;;;;;;4855377;29;20499;-80
2022/01/17 12:48:57;;;;;;;29.75;18.38;;;;;;;;;;4868934;29;20052;-80
2022/01/17 12:51:25;;;;;;;29.10;18.15;;;;;;;;;;4860394;29;20053;-81
2022/01/17 12:53:53;;;;;;;26.17;18.40;;;;;;;;;;4842048;29;20118;-80
2022/01/17 12:56:21;;;;;;;31.52;17.58;;;;;;;;;;4857964;29;20513;-80
2022/01/17 12:58:48;;;;;;;29.23;17.93;;;;;;;;;;4856864;29;20487;-81
2022/01/17 13:01:18;;;;;;;28.67;17.52;;;;;;;;;;4840438;29;20752;-80
2022/01/17 13:03:46;;;;;;;27.10;16.90;;;;;;;;;;4860316;29;20064;-80
2022/01/17 13:06:16;;;;;;;27.23;17.73;;;;;;;;;;4857246;29;20050;-80
2022/01/17 13:08:45;;;;;;;29.83;17.63;;;;;;;;;;4861267;29;20546;-80
2022/01/17 13:11:13;;;;;;;28.40;18.90;;;;;;;;;;4866305;29;20573;-80
2022/01/17 13:13:48;;;;;;;31.15;19.20;;;;;;;;;;4855181;29;20075;-81
2022/01/17 13:16:16;;;;;;;29.05;17.63;;;;;;;;;;4840487;29;20090;-81
2022/01/17 13:18:44;;;;;;;34.13;18.88;;;;;;;;;;4858650;29;20049;-81
2022/01/17 13:21:10;;;;;;;35.67;19.33;;;;;;;;;;4857168;29;20177;-81
2022/01/17 13:23:52;;;;;;;31.58;20.60;;;;;;;;;;4843380;29;20063;-81
2022/01/17 13:26:41;;;;;;;34.83;19.92;;;;;;;;;;4857726;29;20113;-81
2022/01/17 13:29:09;;;;;;;28.70;18.48;;;;;;;;;;4847437;29;20074;-80
2022/01/17 13:31:37;;;;;;;32.83;19.17;;;;;;;;;;4855053;29;20129;-81
2022/01/17 13:34:22;;;;;;;32.73;20.50;;;;;;;;;;4858950;29;20051;-80
2022/01/17 13:36:51;;;;;;;24.02;17.73;;;;;;;;;;4860118;29;20054;-81
2022/01/17 13:39:24;;;;;;;29.10;19.85;;;;;;;;;;4857620;29;20050;-81
2022/01/17 13:41:57;;;;;;;31.75;22.65;;;;;;;;;;4858991;29;20084;-81
2022/01/17 13:44:42;;;;;;;35.78;21.50;;;;;;;;;;4856969;29;20085;-81
2022/01/17 13:47:12;;;;;;;27.90;19.25;;;;;;;;;;4857275;29;20057;-82
2022/01/17 13:49:41;;;;;;;23.23;17.50;;;;;;;;;;4854498;29;20057;-81
2022/01/17 13:52:10;;;;;;;23.25;16.45;;;;;;;;;;4857662;29;20054;-81
2022/01/17 13:54:41;;;;;;;22.75;16.70;;;;;;;;;;4858505;29;20069;-81
2022/01/17 13:57:17;;;;;;;21.13;13.73;;;;;;;;;;4856494;29;20113;-79
2022/01/17 14:00:08;;;;;;;18.88;13.57;;;;;;;;;;4857187;29;20056;-81
2022/01/17 14:02:37;;;;;;;21.33;14.20;;;;;;;;;;4840951;29;20054;-81
2022/01/17 14:05:06;;;;;;;25.48;14.27;;;;;;;;;;4857136;29;20049;-80
2022/01/17 14:07:33;;;;;;;18.75;13.90;;;;;;;;;;4853320;29;20108;-81
2022/01/17 14:09:59;;;;;;;20.75;13.18;;;;;;;;;;4872315;29;20053;-81
2022/01/17 14:12:30;;;;;;;17.00;11.80;;;;;;;;;;4858163;29;20046;-81
2022/01/17 14:14:57;;;;;;;16.60;12.20;;;;;;;;;;4859544;29;20472;-81
2022/01/17 14:17:27;;;;;;;16.20;13.30;;;;;;;;;;4856775;29;20181;-81
2022/01/17 14:20:07;;;;;;;16.02;12.57;;;;;;;;;;4856408;29;20061;-81
2022/01/17 14:22:45;;;;;;;29.80;13.70;;;;;;;;;;4840071;29;20116;-81
2022/01/17 14:25:20;;;;;;;21.20;12.05;;;;;;;;;;4860555;29;20057;-80
2022/01/17 14:27:56;;;;;;;17.58;12.20;;;;;;;;;;4845997;29;20053;-80
2022/01/17 14:30:28;;;;;;;18.17;12.98;;;;;;;;;;4859952;29;20054;-81
2022/01/17 14:33:21;;;;;;;19.83;12.80;;;;;;;;;;4844407;29;20434;-81
2022/01/17 14:36:04;;;;;;;17.45;11.90;;;;;;;;;;4866032;29;20037;-81
2022/01/17 14:38:31;;;;;;;15.40;11.55;;;;;;;;;;4863621;29;20093;-81
2022/01/17 14:40:58;;;;;;;18.67;12.57;;;;;;;;;;4870208;29;20052;-81
2022/01/17 14:43:30;;;;;;;17.60;12.70;;;;;;;;;;4875953;29;20064;-81
2022/01/17 14:46:05;;;;;;;16.40;12.50;;;;;;;;;;4881935;29;20055;-81
2022/01/17 14:48:39;;;;;;;16.75;12.48;;;;;;;;;;4862497;29;20045;-81
2022/01/17 14:51:19;;;;;;;16.55;12.82;;;;;;;;;;4859926;29;20527;-80
2022/01/17 14:53:54;;;;;;;21.02;12.57;;;;;;;;;;4860232;29;20122;-81
2022/01/17 14:59:52;;;;;;;19.38;11.65;;;;;;;;;;4878220;29;20502;-80
2022/01/17 15:02:30;;;;;;;16.52;11.52;;;;;;;;;;4877806;29;20096;-81
2022/01/17 15:04:56;;;;;;;16.27;11.95;;;;;;;;;;4877556;29;20573;-78
2022/01/17 15:07:23;;;;;;;18.10;11.60;;;;;;;;;;4875371;29;20099;-79
2022/01/17 15:09:50;;;;;;;14.45;10.13;;;;;;;;;;4892274;29;20057;-78
2022/01/17 15:12:18;;;;;;;11.15;9.05;;;;;;;;;;4877956;29;20101;-78
2022/01/17 15:14:47;;;;;;;15.53;9.83;;;;;;;;;;4878077;29;20121;-79
2022/01/17 15:17:21;;;;;;;13.88;8.50;;;;;;;;;;4877834;29;20411;-79
2022/01/17 15:19:47;;;;;;;15.00;8.77;;;;;;;;;;4875348;29;20490;-80
2022/01/17 15:22:14;;;;;;;14.80;10.35;;;;;;;;;;4876316;29;20407;-79
2022/01/17 15:24:41;;;;;;;12.77;8.68;;;;;;;;;;4878845;29;20105;-80
2022/01/17 15:27:07;;;;;;;12.48;8.75;;;;;;;;;;4875441;29;20072;-80
2022/01/17 15:29:35;;;;;;;15.05;8.85;;;;;;;;;;4877918;29;20061;-79
2022/01/17 15:32:07;;;;;;;12.77;8.55;;;;;;;;;;4875318;29;20049;-79
2022/01/17 15:34:35;;;;;;;13.55;10.25;;;;;;;;;;4871450;29;20418;-79
2022/01/17 15:37:03;;;;;;;15.35;10.50;;;;;;;;;;4863747;29;20057;-78
2022/01/17 15:39:30;;;;;;;15.43;10.60;;;;;;;;;;4878011;29;20081;-79
2022/01/17 15:42:01;;;;;;;13.63;9.55;;;;;;;;;;4877955;29;20053;-79
2022/01/17 15:44:29;;;;;;;18.23;10.48;;;;;;;;;;4880785;29;20105;-80
2022/01/17 15:46:55;;;;;;;12.85;10.23;;;;;;;;;;4879256;29;20120;-80
2022/01/17 15:49:22;;;;;;;16.48;9.40;;;;;;;;;;4875183;29;20110;-80
2022/01/17 15:51:48;;;;;;;12.10;8.73;;;;;;;;;;4890402;29;20067;-79
2022/01/17 15:54:15;;;;;;;13.85;10.43;;;;;;;;;;4877352;29;20067;-80
2022/01/17 15:56:43;;;;;;;13.75;8.68;;;;;;;;;;4877326;29;20084;-79
2022/01/17 15:59:09;;;;;;;13.55;9.23;;;;;;;;;;4882787;29;20072;-81
2022/01/17 16:01:36;;;;;;;15.80;10.55;;;;;;;;;;4883251;29;20059;-80
2022/01/17 16:04:03;;;;;;;14.98;10.77;;;;;;;;;;4883395;29;20041;-80
2022/01/17 16:06:30;;;;;;;19.58;13.60;;;;;;;;;;4883024;29;20061;-80
2022/01/17 16:08:57;;;;;;;18.10;14.65;;;;;;;;;;4886331;29;20052;-80
2022/01/17 16:11:25;;;;;;;22.52;14.15;;;;;;;;;;4884500;29;20117;-79
2022/01/17 16:13:55;;;;;;;;;;;;;;;;;;4885718;29;20061;-80
2022/01/17 16:16:23;;;;;;;19.48;14.45;;;;;;;;;;4883499;29;19987;-80
2022/01/17 16:18:52;;;;;;;20.02;14.82;;;;;;;;;;4884782;29;20048;-80
2022/01/17 16:21:19;;;;;;;19.40;14.68;;;;;;;;;;4885104;29;20045;-80
2022/01/17 16:23:46;;;;;;;27.73;16.50;;;;;;;;;;4883327;29;20100;-79
2022/01/17 16:26:13;;;;;;;23.08;16.00;;;;;;;;;;4883109;29;20433;-80
2022/01/17 16:28:41;;;;;;;18.63;14.35;;;;;;;;;;4881121;29;20068;-79
2022/01/17 16:31:08;;;;;;;20.35;15.63;;;;;;;;;;4886372;29;20052;-80
2022/01/17 16:33:38;;;;;;;19.77;15.70;;;;;;;;;;4885715;29;20053;-79
2022/01/17 16:36:10;;;;;;;25.08;17.67;;;;;;;;;;4882090;29;20496;-78
2022/01/17 16:38:38;;;;;;;23.48;16.27;;;;;;;;;;4882604;29;20057;-77
2022/01/17 16:41:04;;;;;;;24.77;17.70;;;;;;;;;;4884456;29;20044;-79
2022/01/17 16:43:31;;;;;;;27.58;19.80;;;;;;;;;;4881796;29;20744;-79
2022/01/17 16:45:58;;;;;;;30.67;20.33;;;;;;;;;;4882843;29;20086;-79
2022/01/17 16:48:25;;;;;;;39.58;24.08;;;;;;;;;;4882372;29;20053;-78
2022/01/17 16:50:52;;;;;;;48.90;29.35;;;;;;;;;;4882930;29;20081;-79
2022/01/17 16:53:18;;;;;;;44.47;30.70;;;;;;;;;;4881740;29;20045;-79
2022/01/17 16:55:45;;;;;;;53.58;34.15;;;;;;;;;;4883407;29;20086;-78
2022/01/17 16:58:12;;;;;;;50.22;31.90;;;;;;;;;;4882128;29;20047;-78
2022/01/17 17:00:39;;;;;;;39.80;28.00;;;;;;;;;;4884987;29;20080;-80
2022/01/17 17:03:06;;;;;;;42.75;26.30;;;;;;;;;;4880822;29;20056;-80
2022/01/17 17:05:33;;;;;;;46.40;28.20;;;;;;;;;;4881698;29;20049;-80
2022/01/17 17:07:59;;;;;;;61.53;33.50;;;;;;;;;;4883798;29;20076;-79
2022/01/17 17:10:26;;;;;;;47.47;28.40;;;;;;;;;;4884050;29;20057;-79
2022/01/17 17:12:53;;;;;;;43.67;26.83;;;;;;;;;;4883581;29;20076;-79
2022/01/17 17:15:21;;;;;;;38.08;24.98;;;;;;;;;;4881596;29;20150;-78
2022/01/17 17:17:48;;;;;;;32.72;22.23;;;;;;;;;;4882215;29;20057;-79
2022/01/17 17:20:20;;;;;;;33.95;23.35;;;;;;;;;;4881144;29;20570;-79
2022/01/17 17:22:47;;;;;;;55.58;31.52;;;;;;;;;;4883314;29;20049;-79
2022/01/17 17:25:14;;;;;;;58.28;37.85;;;;;;;;;;4879479;29;20077;-79
2022/01/17 17:27:41;;;;;;;38.88;24.23;;;;;;;;;;4884783;29;20093;-78
2022/01/17 17:30:10;;;;;;;54.42;36.17;;;;;;;;;;4881392;29;20092;-79
2022/01/17 17:32:39;;;;;;;58.58;37.83;;;;;;;;;;4880174;29;20050;-78
2022/01/17 17:35:25;;;;;;;43.83;24.20;;;;;;;;;;4878778;29;20447;-80
2022/01/17 17:37:52;;;;;;;43.58;25.95;;;;;;;;;;4874605;29;20163;-80
2022/01/17 17:40:19;;;;;;;63.20;25.63;;;;;;;;;;4857489;29;20045;-80
2022/01/17 17:42:46;;;;;;;84.30;26.35;;;;;;;;;;4877600;29;20045;-80
2022/01/17 17:45:13;;;;;;;83.95;27.77;;;;;;;;;;4875457;29;20530;-79
2022/01/17 17:47:40;;;;;;;122.57;29.30;;;;;;;;;;4877136;29;20513;-80
2022/01/17 17:50:12;;;;;;;218.25;31.13;;;;;;;;;;4884806;29;20049;-78
2022/01/17 17:52:42;;;;;;;359.67;33.70;;;;;;;;;;4872870;29;20082;-79
2022/01/17 17:55:10;;;;;;;335.77;34.50;;;;;;;;;;4876106;29;20200;-79
2022/01/17 17:57:37;;;;;;;;;;;;;;;;;;4878167;29;20079;-79
2022/01/17 18:00:06;;;;;;;263.45;32.78;;;;;;;;;;4879484;29;19924;-79
2022/01/17 18:02:33;;;;;;;;;;;;;;;;;;4877897;29;20129;-79
2022/01/17 18:04:59;;;;;;;139.38;30.25;;;;;;;;;;4879768;29;20388;-78
2022/01/17 18:07:26;;;;;;;188.55;33.80;;;;;;;;;;4891254;29;20427;-77
2022/01/17 18:09:53;;;;;;;191.27;31.80;;;;;;;;;;4871287;29;20075;-78
2022/01/17 18:12:19;;;;;;;112.93;31.15;;;;;;;;;;4879985;29;20128;-78
2022/01/17 18:14:48;;;;;;;;;;;;;;;;;;4880642;29;20506;-78
2022/01/17 18:17:15;;;;;;;72.10;29.42;;;;;;;;;;4876415;29;20026;-79
2022/01/17 18:19:41;;;;;;;59.33;28.80;;;;;;;;;;4868836;29;20112;-80
2022/01/17 18:22:08;;;;;;;61.60;28.63;;;;;;;;;;4863864;29;20177;-80
2022/01/17 18:24:35;;;;;;;50.05;27.85;;;;;;;;;;4872528;29;20133;-79
2022/01/17 18:27:02;;;;;;;47.25;27.77;;;;;;;;;;4873242;29;20056;-79
2022/01/17 18:29:29;;;;;;;51.03;27.08;;;;;;;;;;4858844;29;20052;-78
2022/01/17 18:31:56;;;;;;;46.92;27.77;;;;;;;;;;4853402;29;20073;-79
2022/01/17 18:34:23;;;;;;;48.38;27.45;;;;;;;;;;4834004;29;24994;-80
2022/01/17 18:36:50;;;;;;;49.08;26.70;;;;;;;;;;4854338;29;20081;-81
2022/01/17 18:39:18;;;;;;;55.28;29.17;;;;;;;;;;4849092;29;20049;-80
2022/01/17 18:41:44;;;;;;;48.92;28.42;;;;;;;;;;4854346;29;20085;-80
2022/01/17 18:44:12;;;;;;;58.38;29.10;;;;;;;;;;4853491;29;20072;-80
2022/01/17 18:46:40;;;;;;;48.78;28.80;;;;;;;;;;4851037;29;20054;-78
2022/01/17 18:49:07;;;;;;;51.38;29.77;;;;;;;;;;4853170;29;20045;-79
2022/01/17 18:51:35;;;;;;;53.85;29.85;;;;;;;;;;4851238;29;20062;-79
2022/01/17 18:54:02;;;;;;;65.30;32.78;;;;;;;;;;4849730;29;20057;-80
2022/01/17 18:56:29;;;;;;;59.33;30.88;;;;;;;;;;4853998;29;20113;-81
2022/01/17 18:58:55;;;;;;;61.20;31.55;;;;;;;;;;4852866;29;20041;-80
2022/01/17 19:01:22;;;;;;;62.65;31.75;;;;;;;;;;4841654;29;20731;-80
2022/01/17 19:03:49;;;;;;;61.60;31.55;;;;;;;;;;4841667;29;20130;-79
2022/01/17 19:06:16;;;;;;;68.25;32.33;;;;;;;;;;4842388;29;20042;-79
2022/01/17 19:08:43;;;;;;;63.38;32.58;;;;;;;;;;4845161;29;20045;-79
2022/01/17 19:11:10;;;;;;;58.17;30.85;;;;;;;;;;4842080;29;20243;-80
2022/01/17 19:13:37;;;;;;;58.65;30.45;;;;;;;;;;4842487;29;20110;-79
2022/01/17 19:16:05;;;;;;;57.63;30.40;;;;;;;;;;4838172;29;20053;-79
2022/01/17 19:21:32;;;;;;;55.55;28.08;;;;;;;;;;4842816;29;20049;-79
2022/01/17 19:23:58;;;;;;;46.50;27.73;;;;;;;;;;4847035;29;20049;-81
2022/01/17 19:26:25;;;;;;;46.33;27.80;;;;;;;;;;4848224;29;20817;-79
2022/01/17 19:28:52;;;;;;;45.95;26.40;;;;;;;;;;4844890;29;20491;-80
2022/01/17 19:31:19;;;;;;;55.00;30.73;;;;;;;;;;4850696;29;20511;-79
2022/01/17 19:33:46;;;;;;;46.60;27.75;;;;;;;;;;4854609;29;20081;-81
2022/01/17 19:36:14;;;;;;;46.42;26.60;;;;;;;;;;4838822;29;20523;-81
2022/01/17 19:38:42;;;;;;;47.95;25.92;;;;;;;;;;4851009;29;20049;-81
2022/01/17 19:41:10;;;;;;;42.25;24.48;;;;;;;;;;4836242;29;20057;-79
2022/01/17 19:43:38;;;;;;;51.42;25.77;;;;;;;;;;4836258;29;20073;-80
2022/01/17 19:46:05;;;;;;;48.67;26.15;;;;;;;;;;4852231;29;20056;-82
2022/01/17 19:48:32;;;;;;;42.40;26.33;;;;;;;;;;4848050;29;20066;-81
2022/01/17 19:50:59;;;;;;;42.38;25.50;;;;;;;;;;4840988;29;20103;-82
2022/01/17 19:53:28;;;;;;;45.65;28.92;;;;;;;;;;4841305;29;20092;-80
2022/01/17 19:55:56;;;;;;;39.35;23.20;;;;;;;;;;4839581;29;20519;-81
2022/01/17 19:58:24;;;;;;;37.33;21.90;;;;;;;;;;4844352;29;20146;-82
2022/01/17 20:00:54;;;;;;;37.45;22.50;;;;;;;;;;4850828;29;20185;-81
2022/01/17 20:03:22;;;;;;;39.40;21.23;;;;;;;;;;4868640;29;20049;-81
2022/01/17 20:05:51;;;;;;;40.08;21.13;;;;;;;;;;4871797;29;20433;-81
2022/01/17 20:08:19;;;;;;;35.13;20.90;;;;;;;;;;4869129;29;20049;-81
2022/01/17 20:10:52;;;;;;;38.53;21.05;;;;;;;;;;4853172;29;20045;-81
2022/01/17 20:13:21;;;;;;;42.70;21.52;;;;;;;;;;4852720;29;20144;-81
2022/01/17 20:15:48;;;;;;;42.70;19.75;;;;;;;;;;4853584;29;20105;-81
2022/01/17 20:18:16;;;;;;;37.58;19.50;;;;;;;;;;4852021;29;20148;-81
2022/01/17 20:20:46;;;;;;;36.58;18.10;;;;;;;;;;4845154;29;20072;-79
2022/01/17 20:23:16;;;;;;;32.53;17.08;;;;;;;;;;4840612;29;20136;-79
2022/01/17 20:25:43;;;;;;;32.65;16.05;;;;;;;;;;4852459;29;20050;-80
2022/01/17 20:28:12;;;;;;;33.15;16.00;;;;;;;;;;4845931;29;20539;-79
2022/01/17 20:30:44;;;;;;;31.15;15.10;;;;;;;;;;4843758;29;20083;-80
2022/01/17 20:33:13;;;;;;;30.92;14.45;;;;;;;;;;4830751;29;20053;-80
2022/01/17 20:35:40;;;;;;;35.85;16.55;;;;;;;;;;4845757;29;20098;-79
2022/01/17 20:38:08;;;;;;;30.83;14.07;;;;;;;;;;4838567;29;20086;-79
2022/01/17 20:40:36;;;;;;;32.40;15.13;;;;;;;;;;4834368;29;20110;-79
2022/01/17 20:43:03;;;;;;;30.20;13.73;;;;;;;;;;4840318;29;20141;-78
2022/01/17 20:45:30;;;;;;;36.78;14.65;;;;;;;;;;4842131;29;20050;-78
2022/01/17 20:47:57;;;;;;;31.85;14.02;;;;;;;;;;4841967;29;20053;-79
2022/01/17 20:50:24;;;;;;;31.27;13.60;;;;;;;;;;4842544;29;20136;-78
2022/01/17 20:52:51;;;;;;;32.42;14.75;;;;;;;;;;4840677;29;20110;-78
2022/01/17 20:55:19;;;;;;;33.30;15.43;;;;;;;;;;4844569;29;20053;-77
2022/01/17 20:57:46;;;;;;;36.28;14.73;;;;;;;;;;4842481;29;20049;-77
2022/01/17 21:00:15;;;;;;;47.97;16.80;;;;;;;;;;4844050;29;20096;-78
2022/01/17 21:02:42;;;;;;;39.72;18.30;;;;;;;;;;4832764;29;20054;-78
2022/01/17 21:05:10;;;;;;;51.42;21.73;;;;;;;;;;4819267;29;20413;-79
2022/01/17 21:07:36;;;;;;;48.00;22.70;;;;;;;;;;4835259;29;20050;-77
2022/01/17 21:10:08;;;;;;;56.13;24.92;;;;;;;;;;4832425;29;20102;-78
2022/01/17 21:12:35;;;;;;;52.28;24.35;;;;;;;;;;4849319;29;20137;-77
2022/01/17 21:15:04;;;;;;;53.25;25.88;;;;;;;;;;4845692;29;20054;-78
2022/01/17 21:17:31;;;;;;;67.80;28.30;;;;;;;;;;4850468;29;20049;-78
2022/01/17 21:20:04;;;;;;;82.15;28.48;;;;;;;;;;4851399;29;20041;-78
2022/01/17 21:22:31;;;;;;;188.90;34.72;;;;;;;;;;4832726;29;20045;-77
2022/01/17 21:24:58;;;;;;;144.70;34.55;;;;;;;;;;4834755;29;20050;-77
2022/01/17 21:27:25;;;;;;;260.50;38.28;;;;;;;;;;4832036;29;20061;-77
2022/01/17 21:29:52;;;;;;;230.65;38.15;;;;;;;;;;4840302;29;20919;-78
2022/01/17 21:32:19;;;;;;;198.25;35.17;;;;;;;;;;4843232;29;20076;-77
2022/01/17 21:34:45;;;;;;;222.65;35.78;;;;;;;;;;4850834;29;20049;-79
2022/01/17 21:37:12;;;;;;;263.45;37.55;;;;;;;;;;4834698;29;20144;-78
2022/01/17 21:39:39;;;;;;;344.63;41.20;;;;;;;;;;4831720;29;20198;-77
2022/01/17 21:42:07;;;;;;;300.23;38.22;;;;;;;;;;4829089;29;20134;-77
2022/01/17 21:44:33;;;;;;;437.03;45.70;;;;;;;;;;4833272;29;20481;-77
2022/01/17 21:47:01;;;;;;;571.03;49.72;;;;;;;;;;4840270;29;20350;-77
2022/01/17 21:49:48;;;;;;;343.00;47.43;;;;;;;;;;4850555;29;20689;-77
2022/01/17 21:52:15;;;;;;;579.60;54.28;;;;;;;;;;4849390;29;20045;-77
2022/01/17 21:54:42;;;;;;;552.40;51.60;;;;;;;;;;4852005;29;20076;-78
2022/01/17 21:57:10;;;;;;;723.38;57.97;;;;;;;;;;4852747;29;20117;-78